Time;durP1;ratioP1;P1;durP2;ratioP2;P2;SDS_P1;SDS_P2;PMS_P1;PMS_P2;Temp;Humidity;BMP_temperature;BMP_pressure;BME280_temperature;BME280_humidity;BME280_pressure;Samples;Min_cycle;Max_cycle;Signal;HPM_P1;HPM_P2
2022/11/26 00:02:21;;;;;;;39.93;16.43;;;;;;;4.18;81.63;95312.00;5063155;28;20257;-77
2022/11/26 00:04:46;;;;;;;21.40;12.60;;;;;;;4.07;81.69;95288.03;5079896;28;20183;-77
2022/11/26 00:07:14;;;;;;;26.50;15.05;;;;;;;3.95;82.25;95279.72;5069956;28;21140;-78
2022/11/26 00:09:40;;;;;;;21.87;10.40;;;;;;;4.16;81.92;95302.69;5078208;28;20173;-77
2022/11/26 00:12:15;;;;;;;17.70;9.70;;;;;;;4.23;82.42;95305.50;5081466;28;20213;-77
2022/11/26 00:14:41;;;;;;;18.80;9.37;;;;;;;4.28;82.20;95300.59;5071372;28;20643;-77
2022/11/26 00:17:10;;;;;;;18.67;9.10;;;;;;;4.27;82.24;95298.97;5080667;28;20350;-77
2022/11/26 00:19:36;;;;;;;16.47;7.70;;;;;;;4.05;82.44;95262.16;5091103;28;20205;-77
2022/11/26 00:22:01;;;;;;;17.43;7.87;;;;;;;4.30;82.55;95290.84;5091310;28;20173;-77
2022/11/26 00:24:28;;;;;;;12.87;6.00;;;;;;;4.31;82.99;95287.25;5079848;28;20652;-77
2022/11/26 00:26:56;;;;;;;13.40;6.07;;;;;;;4.37;83.57;95295.25;5077953;28;20178;-77
2022/11/26 00:29:22;;;;;;;12.47;6.53;;;;;;;4.40;83.37;95299.31;5082427;28;20182;-76
2022/11/26 00:31:47;;;;;;;15.30;7.10;;;;;;;4.39;83.05;95295.09;5091023;28;20170;-77
2022/11/26 00:34:13;;;;;;;15.77;9.60;;;;;;;4.39;82.56;95293.31;5082903;28;20253;-77
2022/11/26 00:36:38;;;;;;;15.50;8.67;;;;;;;4.33;82.48;95280.91;5070680;28;20489;-77
2022/11/26 00:39:08;;;;;;;15.27;8.80;;;;;;;4.40;82.25;95299.31;5070902;28;20201;-77
2022/11/26 00:41:39;;;;;;;14.23;8.90;;;;;;;4.40;82.27;95301.94;5070593;28;20682;-77
2022/11/26 00:44:16;;;;;;;14.17;8.30;;;;;;;4.38;82.22;95312.50;5074440;28;20222;-77
2022/11/26 00:46:42;;;;;;;17.10;7.70;;;;;;;4.39;81.97;95318.53;5085496;28;20184;-77
2022/11/26 00:49:07;;;;;;;16.20;8.33;;;;;;;4.34;82.33;95313.78;5088783;28;20170;-77
2022/11/26 00:51:33;;;;;;;16.90;7.83;;;;;;;4.31;82.62;95316.75;5074322;28;20196;-77
2022/11/26 00:54:01;;;;;;;12.07;6.90;;;;;;;4.32;82.87;95320.97;5078393;28;20643;-77
2022/11/26 00:56:27;;;;;;;11.77;6.47;;;;;;;4.28;82.94;95317.06;5094847;28;20189;-77
2022/11/26 00:58:52;;;;;;;14.77;6.97;;;;;;;4.22;83.25;95325.53;5083337;28;20198;-77
2022/11/26 01:01:21;;;;;;;14.33;7.50;;;;;;;4.15;83.64;95322.72;5072572;28;20417;-77
2022/11/26 01:03:47;;;;;;;11.45;6.35;;;;;;;4.16;83.11;95323.53;5092068;28;21038;-77
2022/11/26 01:06:16;;;;;;;11.87;5.93;;;;;;;3.94;82.38;95296.31;5094842;28;20260;-77
2022/11/26 01:08:42;;;;;;;10.77;5.70;;;;;;;4.21;81.56;95328.28;5076370;28;20193;-77
2022/11/26 01:11:13;;;;;;;14.10;7.03;;;;;;;4.18;81.75;95327.63;5076411;28;20345;-77
2022/11/26 01:13:39;;;;;;;9.93;5.97;;;;;;;4.17;81.24;95331.19;5078767;28;20170;-77
2022/11/26 01:16:19;;;;;;;14.60;6.97;;;;;;;4.12;81.18;95343.06;5074246;28;20189;-77
2022/11/26 01:18:46;;;;;;;15.80;8.07;;;;;;;4.05;81.23;95345.50;5090431;28;20566;-77
2022/11/26 01:21:12;;;;;;;14.63;8.17;;;;;;;4.00;81.35;95352.16;5056753;28;20178;-77
2022/11/26 01:23:38;;;;;;;15.47;8.23;;;;;;;3.92;81.50;95347.72;5088890;28;20662;-77
2022/11/26 01:26:03;;;;;;;15.70;7.73;;;;;;;3.84;81.70;95339.06;5094122;28;20180;-77
2022/11/26 01:28:29;;;;;;;12.40;7.03;;;;;;;3.70;81.98;95327.50;5094165;28;20162;-77
2022/11/26 01:30:54;;;;;;;13.57;6.87;;;;;;;3.80;82.43;95355.00;5077932;28;20256;-77
2022/11/26 01:33:19;;;;;;;19.60;8.37;;;;;;;3.69;82.48;95352.69;5093332;28;20248;-77
2022/11/26 01:35:45;;;;;;;20.37;8.73;;;;;;;3.70;83.09;95356.13;5094495;28;20946;-77
2022/11/26 01:38:13;;;;;;;15.27;6.97;;;;;;;3.67;83.40;95352.03;5093675;28;20730;-77
2022/11/26 01:41:00;;;;;;;13.60;5.87;;;;;;;3.62;83.80;95351.69;5093684;28;20577;-77
2022/11/26 01:43:40;;;;;;;13.70;6.43;;;;;;;3.66;83.70;95350.41;5093610;28;20611;-77
2022/11/26 01:46:14;;;;;;;9.60;4.97;;;;;;;3.71;83.78;95352.56;5093801;28;20239;-77
2022/11/26 01:48:39;;;;;;;8.60;4.57;;;;;;;3.74;83.90;95350.44;5082996;28;20170;-77
2022/11/26 01:51:06;;;;;;;11.17;5.53;;;;;;;3.61;84.21;95316.22;5087496;28;20545;-77
2022/11/26 01:53:34;;;;;;;6.90;4.23;;;;;;;3.78;84.23;95343.94;5093186;28;20224;-77
2022/11/26 01:56:05;;;;;;;7.37;4.77;;;;;;;3.78;83.97;95349.16;5093542;28;20196;-77
2022/11/26 01:58:38;;;;;;;10.63;4.53;;;;;;;3.57;83.88;95311.47;5085466;28;20232;-77
2022/11/26 02:01:03;;;;;;;6.40;4.27;;;;;;;3.81;83.62;95348.00;5078713;28;20178;-77
2022/11/26 02:03:33;;;;;;;8.23;4.50;;;;;;;3.80;83.81;95349.78;5093493;28;20595;-77
2022/11/26 02:06:06;;;;;;;8.27;4.53;;;;;;;3.74;83.48;95331.38;5073609;28;20255;-77
2022/11/26 02:08:33;;;;;;;8.37;4.80;;;;;;;3.85;83.56;95349.34;5073250;28;20163;-76
2022/11/26 02:11:13;;;;;;;9.37;4.93;;;;;;;3.84;83.84;95349.50;5072920;28;20166;-76
2022/11/26 02:13:38;;;;;;;10.03;5.80;;;;;;;3.77;84.33;95349.31;5086509;28;20176;-76
2022/11/26 02:16:33;;;;;;;16.05;7.15;;;;;;;3.74;85.07;95349.63;5091567;28;20412;-76
2022/11/26 02:19:16;;;;;;;12.07;5.67;;;;;;;3.73;84.90;95345.38;4986076;28;20210;-76
2022/11/26 02:21:48;;;;;;;11.02;6.32;;;;;;;3.64;85.49;95333.28;5069734;28;20540;-76
2022/11/26 02:24:43;;;;;;;13.03;6.33;;;;;;;3.80;85.42;95343.81;5089978;28;20562;-77
2022/11/26 02:27:47;;;;;;;9.73;5.40;;;;;;;3.76;84.88;95338.09;5084964;28;20188;-77
2022/11/26 02:30:14;;;;;;;9.57;5.82;;;;;;;3.76;85.23;95343.28;4982230;28;20456;-78
2022/11/26 02:32:49;;;;;;;6.07;4.40;;;;;;;3.78;85.09;95348.34;5072658;28;20171;-77
2022/11/26 02:35:23;;;;;;;8.43;5.80;;;;;;;3.70;85.80;95317.06;5070926;28;20419;-78
2022/11/26 02:38:00;;;;;;;9.73;4.73;;;;;;;3.78;85.23;95330.13;5076095;28;20200;-77
2022/11/26 02:40:26;;;;;;;7.87;5.13;;;;;;;3.77;85.49;95320.69;5092834;28;20201;-78
2022/11/26 02:42:51;;;;;;;11.18;6.18;;;;;;;3.86;85.46;95334.53;5062715;28;20422;-77
2022/11/26 02:45:21;;;;;;;13.13;6.82;;;;;;;3.87;86.05;95337.00;5053440;28;20434;-78
2022/11/26 02:47:52;;;;;;;11.53;6.47;;;;;;;3.81;85.95;95335.00;5081176;28;20174;-77
2022/11/26 02:50:23;;;;;;;13.30;5.97;;;;;;;3.79;86.18;95342.97;5087185;28;20173;-78
2022/11/26 02:52:51;;;;;;;14.23;6.50;;;;;;;3.80;86.71;95336.78;5092549;28;20174;-78
2022/11/26 02:55:20;;;;;;;11.53;6.20;;;;;;;3.80;86.91;95343.81;5092621;28;20260;-78
2022/11/26 02:57:49;;;;;;;11.02;6.97;;;;;;;3.75;87.27;95349.47;5073134;28;20409;-78
2022/11/26 03:00:16;;;;;;;12.13;6.57;;;;;;;3.78;87.44;95341.34;5072309;28;20664;-78
2022/11/26 03:03:01;;;;;;;11.80;7.22;;;;;;;3.71;87.82;95347.34;5070603;28;20425;-78
2022/11/26 03:05:32;;;;;;;12.37;6.10;;;;;;;3.72;88.10;95346.34;5030480;28;20190;-78
2022/11/26 03:07:59;;;;;;;11.73;6.17;;;;;;;3.77;88.10;95352.72;5090345;28;20169;-77
2022/11/26 03:10:29;;;;;;;12.30;7.30;;;;;;;3.77;88.18;95360.53;5092135;28;20169;-77
2022/11/26 03:12:54;;;;;;;11.93;6.20;;;;;;;3.76;88.05;95355.50;5074797;28;20644;-77
2022/11/26 03:15:20;;;;;;;12.40;7.17;;;;;;;3.75;87.98;95364.25;5075687;28;20188;-77
2022/11/26 03:17:46;;;;;;;15.90;8.30;;;;;;;3.54;87.80;95330.84;5092081;28;20174;-78
2022/11/26 03:20:12;;;;;;;13.77;8.43;;;;;;;3.58;88.30;95367.75;5090305;28;20439;-77
2022/11/26 03:22:37;;;;;;;14.60;9.00;;;;;;;3.49;88.70;95372.13;5091006;28;20420;-78
2022/11/26 03:25:05;;;;;;;13.40;7.10;;;;;;;3.50;88.73;95372.94;5083211;28;20206;-77
2022/11/26 03:27:30;;;;;;;22.53;7.40;;;;;;;3.48;88.60;95386.09;5071749;28;20171;-77
2022/11/26 03:29:56;;;;;;;11.07;6.77;;;;;;;3.42;88.33;95371.09;5071433;28;20174;-77
2022/11/26 03:32:21;;;;;;;8.97;5.23;;;;;;;3.60;88.42;95399.66;5071571;28;20183;-77
2022/11/26 03:34:47;;;;;;;12.77;5.97;;;;;;;3.61;88.03;95394.31;5071912;28;20170;-77
2022/11/26 03:37:13;;;;;;;8.27;5.30;;;;;;;3.59;88.13;95403.25;5080528;28;20184;-77
2022/11/26 03:39:39;;;;;;;10.57;6.40;;;;;;;3.64;88.13;95400.97;5090013;28;20528;-77
2022/11/26 03:42:04;;;;;;;8.97;5.43;;;;;;;3.69;87.60;95403.94;5091570;28;20188;-78
2022/11/26 03:44:30;;;;;;;10.33;5.80;;;;;;;3.68;87.39;95405.72;5081008;28;20233;-77
2022/11/26 03:46:55;;;;;;;10.10;6.00;;;;;;;3.68;87.06;95403.13;5076448;28;20201;-78
2022/11/26 03:49:20;;;;;;;14.27;5.57;;;;;;;3.70;86.93;95403.78;5082950;28;20265;-78
2022/11/26 03:51:46;;;;;;;9.60;6.03;;;;;;;3.64;86.78;95408.78;5063216;28;20178;-77
2022/11/26 03:54:11;;;;;;;8.20;5.80;;;;;;;3.56;87.36;95404.34;5071362;28;20239;-77
2022/11/26 03:56:36;;;;;;;7.97;5.70;;;;;;;3.60;87.01;95412.69;5089623;28;20192;-77
2022/11/26 03:59:02;;;;;;;10.17;6.20;;;;;;;3.46;87.53;95415.84;5086533;28;20202;-77
2022/11/26 04:01:27;;;;;;;11.93;6.80;;;;;;;3.40;87.81;95425.06;5088188;28;20571;-77
2022/11/26 04:03:53;;;;;;;13.15;8.05;;;;;;;3.29;88.78;95425.31;5089656;28;20412;-77
2022/11/26 04:06:18;;;;;;;15.00;8.03;;;;;;;3.26;88.98;95423.03;5091446;28;20177;-77
2022/11/26 04:08:43;;;;;;;15.00;8.90;;;;;;;3.29;88.91;95433.13;5073211;28;20170;-77
2022/11/26 04:11:09;;;;;;;17.47;8.40;;;;;;;3.32;88.33;95435.44;5084207;28;20201;-77
2022/11/26 04:13:34;;;;;;;14.53;8.93;;;;;;;3.30;88.42;95445.97;5091305;28;20178;-78
2022/11/26 04:16:00;;;;;;;15.73;8.50;;;;;;;3.23;88.33;95434.56;5091149;28;20174;-77
2022/11/26 04:18:25;;;;;;;20.15;11.20;;;;;;;3.20;89.04;95434.06;5090604;28;20565;-78
2022/11/26 04:20:50;;;;;;;20.53;11.70;;;;;;;3.17;89.17;95439.56;5081874;28;20178;-78
2022/11/26 04:23:16;;;;;;;20.90;12.53;;;;;;;3.18;88.81;95444.59;5071121;28;20189;-78
2022/11/26 04:25:41;;;;;;;28.10;14.10;;;;;;;3.17;88.84;95440.38;5070814;28;20185;-77
2022/11/26 04:28:06;;;;;;;26.70;15.77;;;;;;;3.04;89.58;95448.53;5050993;28;20504;-78
2022/11/26 04:30:32;;;;;;;21.55;13.55;;;;;;;3.04;90.16;95442.53;5068942;28;20468;-77
2022/11/26 04:32:57;;;;;;;16.47;10.00;;;;;;;2.93;89.83;95443.59;5069557;28;20417;-78
2022/11/26 04:35:23;;;;;;;14.13;9.13;;;;;;;2.99;90.89;95455.16;5068957;28;20428;-78
2022/11/26 04:37:48;;;;;;;16.77;9.20;;;;;;;2.99;90.67;95462.97;5069434;28;20444;-78
2022/11/26 04:40:13;;;;;;;13.80;8.70;;;;;;;3.01;90.52;95471.44;5070453;28;20208;-77
2022/11/26 04:42:39;;;;;;;18.63;11.07;;;;;;;2.83;90.73;95468.03;5084022;28;20428;-77
2022/11/26 04:45:04;;;;;;;17.47;10.43;;;;;;;2.85;90.76;95468.69;5072281;28;20430;-77
2022/11/26 04:47:30;;;;;;;15.23;10.23;;;;;;;2.72;91.21;95473.44;5068798;28;20488;-78
2022/11/26 04:49:55;;;;;;;15.53;10.07;;;;;;;2.70;91.06;95476.16;5068933;28;20415;-77
2022/11/26 04:52:21;;;;;;;14.43;8.20;;;;;;;2.70;90.95;95470.97;5089205;28;20181;-77
2022/11/26 04:54:46;;;;;;;17.33;10.13;;;;;;;2.53;91.01;95476.97;5089707;28;20412;-77
2022/11/26 04:57:11;;;;;;;14.97;8.77;;;;;;;2.38;91.65;95455.06;5090570;28;20239;-77
2022/11/26 04:59:37;;;;;;;15.90;9.25;;;;;;;2.48;91.47;95466.22;5078506;28;20460;-77
2022/11/26 05:02:02;;;;;;;15.27;9.80;;;;;;;2.48;92.05;95474.81;5069506;28;20427;-77
2022/11/26 05:04:29;;;;;;;13.20;8.37;;;;;;;2.61;92.49;95490.88;5070464;28;20301;-77
2022/11/26 05:06:54;;;;;;;15.27;8.10;;;;;;;2.66;91.92;95493.03;5069917;28;20182;-76
2022/11/26 05:09:21;;;;;;;14.30;8.63;;;;;;;2.72;92.18;95491.63;5069981;28;20579;-77
2022/11/26 05:11:46;;;;;;;14.73;8.23;;;;;;;2.77;91.73;95495.41;5070205;28;20190;-77
2022/11/26 05:14:12;;;;;;;15.33;7.87;;;;;;;2.73;91.14;95485.47;5070147;28;20182;-77
2022/11/26 05:16:37;;;;;;;16.57;10.07;;;;;;;2.71;90.98;95493.41;5069191;28;20498;-77
2022/11/26 05:19:02;;;;;;;14.77;9.40;;;;;;;2.75;90.97;95506.94;5070331;28;21011;-78
2022/11/26 05:21:28;;;;;;;16.73;10.40;;;;;;;2.77;90.47;95510.22;5069144;28;20919;-76
2022/11/26 05:23:53;;;;;;;25.67;13.60;;;;;;;2.60;90.75;95494.41;5069894;28;21018;-77
2022/11/26 05:26:19;;;;;;;22.97;14.20;;;;;;;2.39;90.76;95472.28;5068350;28;20422;-77
2022/11/26 05:28:44;;;;;;;20.83;12.85;;;;;;;2.55;90.66;95514.03;5070923;28;20410;-76
2022/11/26 05:31:10;;;;;;;21.47;11.90;;;;;;;2.41;90.50;95504.94;5073214;28;20270;-77
2022/11/26 05:33:36;;;;;;;18.60;10.50;;;;;;;2.56;90.39;95515.66;5080945;28;20264;-76
2022/11/26 05:36:02;;;;;;;19.88;12.50;;;;;;;2.18;90.38;95478.53;5092256;28;20443;-77
2022/11/26 05:38:27;;;;;;;19.00;11.27;;;;;;;2.45;90.30;95524.47;5087569;28;20293;-77
2022/11/26 05:40:53;;;;;;;20.33;10.97;;;;;;;2.57;90.50;95528.50;5073396;28;20174;-77
2022/11/26 05:43:18;;;;;;;20.37;10.70;;;;;;;2.65;89.88;95527.78;5073336;28;20670;-77
2022/11/26 05:45:43;;;;;;;26.53;13.40;;;;;;;2.56;89.26;95529.47;5072959;28;20222;-77
2022/11/26 05:48:09;;;;;;;23.50;13.57;;;;;;;2.56;89.65;95532.06;5073137;28;20197;-77
2022/11/26 05:50:34;;;;;;;26.80;13.90;;;;;;;2.57;89.08;95536.31;5073307;28;20190;-76
2022/11/26 05:53:00;;;;;;;27.67;14.90;;;;;;;2.43;89.52;95517.75;5073026;28;20179;-77
2022/11/26 05:55:25;;;;;;;25.67;10.90;;;;;;;2.56;89.36;95536.44;5072824;28;20182;-77
2022/11/26 05:57:51;;;;;;;15.53;8.63;;;;;;;2.65;88.75;95533.81;5073097;28;20245;-76
2022/11/26 06:00:18;;;;;;;13.33;6.80;;;;;;;2.66;88.19;95529.44;5073383;28;20626;-78
2022/11/26 06:02:43;;;;;;;13.30;6.67;;;;;;;2.60;88.34;95540.38;5073209;28;20236;-77
2022/11/26 06:05:09;;;;;;;17.63;8.33;;;;;;;2.47;88.18;95519.94;5072607;28;20178;-76
2022/11/26 06:07:36;;;;;;;18.83;9.67;;;;;;;2.68;87.96;95537.06;5072910;28;20174;-76
2022/11/26 06:10:02;;;;;;;14.53;8.27;;;;;;;2.70;88.14;95541.16;5072899;28;20178;-76
2022/11/26 06:12:28;;;;;;;16.50;9.03;;;;;;;2.55;87.86;95501.84;5072830;28;20261;-77
2022/11/26 06:14:53;;;;;;;25.07;12.17;;;;;;;2.81;87.99;95542.72;5078104;28;20666;-77
2022/11/26 06:17:18;;;;;;;18.73;12.13;;;;;;;2.97;88.27;95540.28;5093170;28;20243;-77
2022/11/26 06:19:44;;;;;;;73.93;37.30;;;;;;;3.48;87.88;95544.84;5092621;28;20204;-77
2022/11/26 06:22:09;;;;;;;42.60;23.43;;;;;;;4.32;87.33;95539.06;5092841;28;20253;-78
2022/11/26 06:24:35;;;;;;;35.53;18.80;;;;;;;4.69;82.87;95523.88;5092612;28;20196;-77
2022/11/26 06:27:00;;;;;;;41.40;22.43;;;;;;;5.23;80.92;95524.34;5092678;28;20185;-76
2022/11/26 06:29:26;;;;;;;37.30;19.50;;;;;;;5.96;78.41;95553.13;5092798;28;20205;-77
2022/11/26 06:31:51;;;;;;;48.07;23.17;;;;;;;6.23;76.24;95544.88;5089582;28;20765;-76
2022/11/26 06:34:17;;;;;;;46.00;24.87;;;;;;;6.48;75.47;95542.22;5072043;28;20174;-76
2022/11/26 06:36:42;;;;;;;35.87;22.60;;;;;;;6.66;74.57;95553.28;5071750;28;20854;-75
2022/11/26 06:39:09;;;;;;;35.33;21.47;;;;;;;6.74;74.30;95553.25;5053644;28;20562;-77
2022/11/26 06:41:34;;;;;;;39.23;22.53;;;;;;;6.44;73.88;95532.09;5071407;28;20224;-76
2022/11/26 06:44:00;;;;;;;34.80;19.97;;;;;;;6.88;73.91;95557.75;5082953;28;20594;-76
2022/11/26 06:46:26;;;;;;;32.37;19.03;;;;;;;7.25;72.58;95564.13;5092148;28;20209;-76
2022/11/26 06:48:51;;;;;;;32.93;17.80;;;;;;;7.37;71.59;95563.53;5091846;28;20191;-77
2022/11/26 06:51:20;;;;;;;31.57;17.07;;;;;;;7.43;71.69;95567.28;5091969;28;20708;-76
2022/11/26 06:53:46;;;;;;;27.43;17.07;;;;;;;7.50;71.62;95562.97;5091951;28;20170;-76
2022/11/26 06:56:13;;;;;;;33.23;17.07;;;;;;;7.42;71.23;95569.09;5074046;28;20548;-75
2022/11/26 06:58:38;;;;;;;27.20;16.17;;;;;;;7.16;72.09;95572.03;5091981;28;20221;-76
2022/11/26 07:01:09;;;;;;;26.93;15.33;;;;;;;6.60;72.83;95499.81;5091819;28;20329;-75
2022/11/26 07:03:34;;;;;;;26.77;12.90;;;;;;;6.94;74.12;95549.22;5091902;28;20185;-75
2022/11/26 07:05:59;;;;;;;24.87;13.70;;;;;;;6.99;72.97;95554.75;5092650;28;20170;-75
2022/11/26 07:08:25;;;;;;;27.53;13.20;;;;;;;7.06;74.13;95571.41;5092158;28;20197;-75
2022/11/26 07:10:50;;;;;;;21.23;11.97;;;;;;;6.99;73.90;95573.09;5091795;28;20536;-76
2022/11/26 07:13:16;;;;;;;22.50;12.93;;;;;;;6.79;74.14;95577.09;5091738;28;20667;-76
2022/11/26 07:15:41;;;;;;;23.53;12.23;;;;;;;6.69;75.70;95576.47;5091830;28;20252;-76
2022/11/26 07:18:06;;;;;;;23.80;11.90;;;;;;;6.54;76.66;95578.16;5083259;28;20673;-77
2022/11/26 07:20:34;;;;;;;18.07;10.93;;;;;;;6.37;76.98;95575.59;5069644;28;20184;-76
2022/11/26 07:23:01;;;;;;;22.40;12.30;;;;;;;6.16;77.64;95556.16;5091422;28;20181;-76
2022/11/26 07:25:27;;;;;;;20.77;12.37;;;;;;;6.25;77.22;95571.69;5091349;28;20555;-76
2022/11/26 07:27:52;;;;;;;17.07;9.73;;;;;;;6.21;76.32;95580.03;5091515;28;20182;-75
2022/11/26 07:30:18;;;;;;;19.27;11.93;;;;;;;6.09;76.79;95576.94;5091677;28;20280;-76
2022/11/26 07:32:43;;;;;;;19.03;10.40;;;;;;;5.96;77.12;95581.84;5091064;28;20177;-76
2022/11/26 07:35:09;;;;;;;19.90;11.60;;;;;;;5.88;78.40;95577.44;5091409;28;20706;-76
2022/11/26 07:37:34;;;;;;;21.40;11.83;;;;;;;5.87;78.17;95578.41;5091204;28;20185;-75
2022/11/26 07:40:00;;;;;;;15.23;9.80;;;;;;;5.80;78.39;95582.63;5091323;28;20205;-76
2022/11/26 07:42:29;;;;;;;17.80;10.23;;;;;;;5.62;78.54;95548.81;5083338;28;20556;-76
2022/11/26 07:44:54;;;;;;;15.67;10.13;;;;;;;5.43;79.09;95528.28;5068655;28;20741;-77
2022/11/26 07:47:20;;;;;;;19.30;11.77;;;;;;;5.78;79.62;95582.00;5056003;28;20251;-76
2022/11/26 07:49:45;;;;;;;15.73;9.67;;;;;;;5.67;79.85;95585.72;5070831;28;20249;-76
2022/11/26 07:52:11;;;;;;;19.53;10.43;;;;;;;5.62;80.19;95590.59;5070521;28;20186;-76
2022/11/26 07:54:37;;;;;;;18.90;9.70;;;;;;;5.72;80.41;95593.06;5070719;28;20190;-76
2022/11/26 07:57:02;;;;;;;17.17;10.10;;;;;;;5.76;79.87;95593.56;5090671;28;20174;-76
2022/11/26 07:59:27;;;;;;;18.40;10.53;;;;;;;5.77;79.62;95603.03;5090860;28;20690;-76
2022/11/26 08:01:53;;;;;;;16.90;10.43;;;;;;;5.72;79.66;95587.84;5090739;28;20255;-74
2022/11/26 08:04:18;;;;;;;17.27;9.77;;;;;;;5.78;79.69;95604.69;5091135;28;20256;-74
2022/11/26 08:06:43;;;;;;;15.97;9.40;;;;;;;5.86;80.48;95607.28;5090848;28;20170;-74
2022/11/26 08:09:09;;;;;;;16.00;10.97;;;;;;;6.00;80.25;95611.88;5091016;28;20854;-75
2022/11/26 08:11:35;;;;;;;21.63;10.67;;;;;;;5.94;81.13;95563.72;5090461;28;20211;-75
2022/11/26 08:14:06;;;;;;;17.10;10.03;;;;;;;6.19;80.58;95601.09;5090675;28;20178;-76
2022/11/26 08:16:32;;;;;;;18.73;11.57;;;;;;;6.18;79.93;95601.25;5072785;28;20181;-76
2022/11/26 08:19:00;;;;;;;12.23;8.07;;;;;;;6.16;80.33;95598.81;5082957;28;20241;-76
2022/11/26 08:21:26;;;;;;;15.37;10.20;;;;;;;6.31;80.18;95601.59;5070230;28;20577;-76
2022/11/26 08:23:52;;;;;;;23.23;13.60;;;;;;;6.46;79.01;95610.38;5070734;28;20949;-74
2022/11/26 08:26:18;;;;;;;21.77;11.50;;;;;;;6.50;77.81;95613.44;5070579;28;20941;-74
2022/11/26 08:28:46;;;;;;;24.10;10.80;;;;;;;6.39;77.75;95597.16;5081136;28;20220;-76
2022/11/26 08:31:14;;;;;;;15.40;10.10;;;;;;;6.53;78.32;95616.56;5090848;28;20173;-75
2022/11/26 08:33:39;;;;;;;20.37;10.93;;;;;;;6.63;78.24;95611.97;5072794;28;20189;-74
2022/11/26 08:36:06;;;;;;;20.20;9.40;;;;;;;6.59;79.61;95602.00;5069167;28;20264;-75
2022/11/26 08:38:32;;;;;;;17.23;10.60;;;;;;;6.64;78.81;95612.78;5069725;28;20224;-76
2022/11/26 08:41:02;;;;;;;21.23;11.47;;;;;;;6.74;78.05;95613.41;5068447;28;20643;-75
2022/11/26 08:43:28;;;;;;;17.57;10.17;;;;;;;6.86;77.63;95617.28;5068328;28;20574;-75
2022/11/26 08:45:55;;;;;;;14.27;9.00;;;;;;;6.90;77.35;95607.31;5068364;28;20233;-75
2022/11/26 08:48:22;;;;;;;13.43;7.60;;;;;;;6.92;76.59;95587.03;5068405;28;20193;-74
2022/11/26 08:50:48;;;;;;;14.93;9.17;;;;;;;7.20;76.32;95615.19;5068658;28;20179;-75
2022/11/26 08:53:14;;;;;;;13.27;8.70;;;;;;;7.31;75.05;95616.59;5080310;28;20611;-75
2022/11/26 08:55:39;;;;;;;12.00;8.30;;;;;;;7.38;75.13;95614.09;5089275;28;20193;-75
2022/11/26 08:58:05;;;;;;;11.20;6.93;;;;;;;7.48;74.45;95627.81;5089581;28;20193;-75
2022/11/26 09:00:30;;;;;;;13.67;6.80;;;;;;;7.46;74.31;95614.88;5090069;28;20188;-75
2022/11/26 09:02:55;;;;;;;11.77;6.40;;;;;;;7.62;74.32;95628.88;5090260;28;20200;-75
2022/11/26 09:05:21;;;;;;;11.60;7.37;;;;;;;7.37;73.85;95588.91;5075637;28;20182;-75
2022/11/26 09:07:47;;;;;;;9.73;6.10;;;;;;;7.64;73.91;95632.94;5093796;28;20208;-75
2022/11/26 09:10:12;;;;;;;10.13;6.23;;;;;;;7.67;73.86;95630.00;5093671;28;20170;-75
2022/11/26 09:12:38;;;;;;;11.27;6.83;;;;;;;7.66;73.89;95628.34;5093771;28;20181;-75
2022/11/26 09:15:03;;;;;;;10.53;7.03;;;;;;;7.49;73.35;95598.00;5093432;28;20186;-75
2022/11/26 09:17:29;;;;;;;9.60;6.90;;;;;;;7.70;72.97;95634.88;5093458;28;20185;-75
2022/11/26 09:19:55;;;;;;;13.50;6.43;;;;;;;7.75;72.91;95624.69;5093653;28;20209;-75
2022/11/26 09:22:24;;;;;;;10.73;6.90;;;;;;;7.75;72.37;95624.69;5093750;28;20662;-75
2022/11/26 09:24:49;;;;;;;9.47;6.10;;;;;;;7.47;72.68;95620.94;5093577;28;20173;-75
2022/11/26 09:27:14;;;;;;;11.23;7.37;;;;;;;7.16;73.61;95613.91;5093501;28;20204;-76
2022/11/26 09:29:40;;;;;;;10.77;6.70;;;;;;;7.08;74.65;95619.19;5083276;28;20182;-77
2022/11/26 09:32:08;;;;;;;10.53;6.70;;;;;;;7.42;75.34;95620.66;5073433;28;20193;-76
2022/11/26 09:34:33;;;;;;;12.47;7.00;;;;;;;7.71;73.18;95612.91;5073424;28;20297;-76
2022/11/26 09:37:00;;;;;;;18.27;10.13;;;;;;;7.96;73.26;95609.13;5073159;28;20270;-76
2022/11/26 09:39:26;;;;;;;43.73;22.70;;;;;;;7.88;72.91;95596.09;5086160;28;20190;-76
2022/11/26 09:42:00;;;;;;;16.50;9.77;;;;;;;8.24;74.56;95606.78;5093401;28;20235;-76
2022/11/26 09:44:53;;;;;;;17.70;10.30;;;;;;;8.48;72.45;95605.75;5093120;28;20221;-76
2022/11/26 09:47:26;;;;;;;15.97;9.43;;;;;;;8.45;70.46;95579.06;5093060;28;20202;-76
2022/11/26 09:50:10;;;;;;;16.80;10.17;;;;;;;8.82;70.29;95604.44;5093310;28;20635;-76
2022/11/26 09:52:56;;;;;;;17.97;10.67;;;;;;;8.75;70.07;95606.13;5093288;28;20170;-76
2022/11/26 09:55:34;;;;;;;21.00;12.27;;;;;;;8.68;69.95;95600.81;5093272;28;20168;-76
2022/11/26 09:58:05;;;;;;;14.23;9.27;;;;;;;8.87;70.18;95599.44;5093309;28;20204;-76
2022/11/26 10:00:36;;;;;;;12.57;6.67;;;;;;;9.10;68.88;95589.63;5093282;28;20266;-76
2022/11/26 10:03:15;;;;;;;8.80;5.80;;;;;;;9.29;67.63;95588.25;5085480;28;20186;-76
2022/11/26 10:05:46;;;;;;;11.50;7.20;;;;;;;9.44;67.76;95581.97;5076957;28;20634;-76
2022/11/26 10:08:21;;;;;;;12.93;8.20;;;;;;;8.76;69.14;95571.84;5074923;28;20189;-76
2022/11/26 10:10:57;;;;;;;11.13;7.73;;;;;;;8.17;70.58;95555.22;5092802;28;20192;-77
2022/11/26 10:13:28;;;;;;;11.90;7.73;;;;;;;8.14;71.69;95513.59;5080783;28;20198;-77
2022/11/26 10:16:25;;;;;;;15.33;9.70;;;;;;;8.76;70.76;95552.66;5072198;28;20644;-76
2022/11/26 10:19:03;;;;;;;15.37;9.10;;;;;;;9.27;70.57;95566.59;5072418;28;20210;-77
2022/11/26 10:21:49;;;;;;;12.33;7.10;;;;;;;9.41;68.70;95550.81;5054685;28;20186;-77
2022/11/26 10:24:24;;;;;;;13.53;8.43;;;;;;;9.60;68.28;95569.59;5054362;28;20190;-76
2022/11/26 10:26:50;;;;;;;13.40;7.17;;;;;;;9.72;67.25;95575.97;5072182;28;20184;-76
2022/11/26 10:29:40;;;;;;;10.13;6.47;;;;;;;9.64;64.99;95560.34;5072300;28;20182;-76
2022/11/26 10:32:14;;;;;;;15.73;8.77;;;;;;;9.53;65.68;95561.63;5072209;28;20197;-77
2022/11/26 10:34:51;;;;;;;14.13;9.73;;;;;;;9.46;66.51;95558.94;5075952;28;20253;-76
2022/11/26 10:37:19;;;;;;;10.37;6.50;;;;;;;9.30;66.45;95545.22;5057405;28;20186;-76
2022/11/26 10:39:45;;;;;;;8.80;6.27;;;;;;;9.39;66.39;95552.00;5063872;28;20302;-76
2022/11/26 10:42:19;;;;;;;10.00;6.80;;;;;;;9.19;66.58;95550.94;5087470;28;20729;-76
2022/11/26 10:44:46;;;;;;;13.37;6.57;;;;;;;9.22;67.34;95553.22;5092100;28;20219;-76
2022/11/26 10:47:20;;;;;;;10.30;6.17;;;;;;;9.34;67.52;95557.00;5092173;28;20242;-76
2022/11/26 10:49:47;;;;;;;11.53;5.90;;;;;;;9.52;67.71;95554.75;5081016;28;20178;-76
2022/11/26 10:52:23;;;;;;;8.93;6.00;;;;;;;9.54;65.93;95549.31;5079368;28;20178;-76
2022/11/26 10:55:15;;;;;;;16.13;6.63;;;;;;;9.69;66.36;95547.44;5053478;28;20197;-77
2022/11/26 10:57:46;;;;;;;8.90;6.07;;;;;;;9.76;65.66;95554.41;5071100;28;20225;-77
2022/11/26 11:00:47;;;;;;;11.33;6.30;;;;;;;9.83;64.95;95559.72;5071310;28;20292;-76
2022/11/26 11:03:20;;;;;;;8.63;5.53;;;;;;;9.68;65.25;95533.50;5022993;28;20202;-76
2022/11/26 11:05:45;;;;;;;13.90;6.03;;;;;;;9.77;65.00;95550.75;5070383;28;20593;-77
2022/11/26 11:08:29;;;;;;;9.17;6.47;;;;;;;9.50;64.89;95529.69;5071355;28;20178;-76
2022/11/26 11:10:57;;;;;;;14.10;5.23;;;;;;;9.70;64.61;95565.66;5071288;28;20220;-76
2022/11/26 11:13:37;;;;;;;7.83;5.30;;;;;;;9.63;62.85;95554.25;5071230;28;20183;-76
2022/11/26 11:16:03;;;;;;;11.67;6.43;;;;;;;9.67;64.91;95567.84;5070439;28;20651;-77
2022/11/26 11:18:29;;;;;;;8.50;5.17;;;;;;;9.69;65.64;95564.00;5071157;28;20206;-77
2022/11/26 11:21:02;;;;;;;7.00;4.70;;;;;;;9.70;65.19;95556.94;5071399;28;20201;-77
2022/11/26 11:23:31;;;;;;;7.43;4.87;;;;;;;9.40;62.54;95511.59;5071156;28;20182;-76
2022/11/26 11:26:03;;;;;;;8.57;5.27;;;;;;;9.69;63.86;95563.19;5087772;28;20170;-76
2022/11/26 11:28:32;;;;;;;6.90;4.00;;;;;;;9.66;63.66;95561.78;5073146;28;20651;-76
2022/11/26 11:31:07;;;;;;;7.17;4.83;;;;;;;9.66;63.80;95555.72;5082971;28;20566;-76
2022/11/26 11:33:33;;;;;;;7.87;4.87;;;;;;;9.59;63.54;95533.81;5071099;28;20185;-76
2022/11/26 11:36:13;;;;;;;8.53;5.23;;;;;;;9.78;64.00;95555.00;5070998;28;20174;-76
2022/11/26 11:38:56;;;;;;;11.70;4.97;;;;;;;9.75;63.10;95557.22;5070629;28;20593;-77